ESGT/THN METAR and TAF weather

Enter ICAO airport designator
Station Type Date Time Source
ESGT METAR 2018/07/20 09:50 UTC NOAA

ESGT 200950Z 18005KT 140V240 CAVOK 24/09 Q1012


Station Type Date Time Source
ESGT Decoded METAR 2018/07/20 09:50 UTC NOAA

Trollhattan Private , Sweden (ESGT) 58-19N 012-21E
Jul 20, 2018 - 05:50 AM EDT / 2018.07.20 0950 UTC
Wind: from the S (180 degrees) at 6 MPH (5 KT) (direction variable):0
Visibility: greater than 7 mile(s):0
Temperature: 75 F (24 C)
Dew Point: 48 F (9 C)
Relative Humidity: 38%
Pressure (altimeter): 29.88 in. Hg (1012 hPa)
ob: ESGT 200950Z 18005KT 140V240 CAVOK 24/09 Q1012
cycle: 10

Station Type Date Time Source
ESGT TAF 2016/08/12 05:58 UTC NOAA

TAF ESGT 120430Z 1205/1224 18007KT 9999 FEW030


Example: see airport list